Terminal Aerodrome Forecast
Issued by NWS Wilmington, OH

Current Version | Previous Version | Text Only | Print | Product List | Glossary On
Versions: 1 2 3 4 5 6 7 8 9 10 11 12 13 14 15 16 17
777 FTUS41 KILN 082340 TAFDAY TAF KDAY 082340Z 0900/0924 29010KT P6SM SCT015 OVC060 TEMPO 0900/0903 3SM -SN BKN015 FM090400 29012KT P6SM -SN OVC022 FM090900 29013KT P6SM -SN OVC015 FM091500 28016G24KT P6SM OVC022 FM092100 28015G23KT 5SM -SHSN OVC025=

USA.gov is the U.S. government's official web portal to all federal, state and local government web resources and services.